Time;durP1;ratioP1;P1;durP2;ratioP2;P2;SDS_P1;SDS_P2;PMS_P1;PMS_P2;Temp;Humidity;BMP_temperature;BMP_pressure;BME280_temperature;BME280_humidity;BME280_pressure;Samples;Min_cycle;Max_cycle;Signal;HPM_P1;HPM_P2
2021/01/27 00:01:33;;;;;;;8.05;5.35;;;;;;;;;;5074469;28;20198;-74
2021/01/27 00:04:06;;;;;;;6.05;5.15;;;;;;;;;;5076198;28;20655;-73
2021/01/27 00:06:40;;;;;;;9.60;6.13;;;;;;;;;;5075995;28;20594;-75
2021/01/27 00:09:13;;;;;;;6.80;5.53;;;;;;;;;;5075812;28;20691;-75
2021/01/27 00:11:46;;;;;;;9.40;5.45;;;;;;;;;;5073884;28;20198;-72
2021/01/27 00:14:19;;;;;;;7.43;5.78;;;;;;;;;;5080643;28;20267;-73
2021/01/27 00:16:52;;;;;;;6.53;5.10;;;;;;;;;;5073637;28;20210;-72
2021/01/27 00:19:25;;;;;;;6.28;5.20;;;;;;;;;;5073756;28;20195;-73
2021/01/27 00:21:57;;;;;;;7.85;5.43;;;;;;;;;;5073592;28;20222;-74
2021/01/27 00:24:30;;;;;;;9.52;5.30;;;;;;;;;;5083318;28;20247;-74
2021/01/27 00:27:10;;;;;;;16.35;6.50;;;;;;;;;;5096025;28;20202;-74
2021/01/27 00:29:43;;;;;;;8.25;5.97;;;;;;;;;;5095520;28;20218;-72
2021/01/27 00:32:15;;;;;;;8.75;5.65;;;;;;;;;;5095783;28;20217;-74
2021/01/27 00:34:48;;;;;;;9.10;7.47;;;;;;;;;;5092085;28;20283;-75
2021/01/27 00:37:21;;;;;;;9.20;6.05;;;;;;;;;;5091900;28;20197;-73
2021/01/27 00:39:54;;;;;;;7.85;5.78;;;;;;;;;;5093769;28;20198;-73
2021/01/27 00:42:28;;;;;;;7.57;6.13;;;;;;;;;;5093563;28;20209;-75
2021/01/27 00:45:00;;;;;;;8.43;6.55;;;;;;;;;;5093671;28;20197;-74
2021/01/27 00:47:33;;;;;;;8.25;6.95;;;;;;;;;;5093767;28;20216;-74
2021/01/27 00:50:06;;;;;;;8.77;6.60;;;;;;;;;;5095588;28;20217;-72
2021/01/27 00:52:39;;;;;;;8.25;7.10;;;;;;;;;;5095493;28;20217;-76
2021/01/27 00:55:13;;;;;;;8.30;6.78;;;;;;;;;;5094578;28;20208;-74
2021/01/27 00:57:46;;;;;;;9.05;6.13;;;;;;;;;;5090049;28;20194;-73
2021/01/27 01:00:20;;;;;;;8.80;5.82;;;;;;;;;;5092592;28;20596;-75
2021/01/27 01:02:53;;;;;;;11.25;6.40;;;;;;;;;;5093263;28;20213;-74
2021/01/27 01:05:26;;;;;;;7.00;5.43;;;;;;;;;;5093231;28;20213;-75
2021/01/27 01:07:59;;;;;;;7.13;5.68;;;;;;;;;;5093491;28;20216;-74
2021/01/27 01:10:33;;;;;;;8.13;6.05;;;;;;;;;;5095395;28;20198;-74
2021/01/27 01:13:07;;;;;;;6.65;5.95;;;;;;;;;;5095161;28;20217;-72
2021/01/27 01:15:40;;;;;;;10.75;5.43;;;;;;;;;;5094661;28;20221;-74
2021/01/27 01:18:13;;;;;;;6.70;5.03;;;;;;;;;;5092581;28;20198;-75
2021/01/27 01:20:47;;;;;;;8.05;5.63;;;;;;;;;;5090829;28;20259;-75
2021/01/27 01:23:21;;;;;;;7.88;5.50;;;;;;;;;;5092417;28;20308;-73
2021/01/27 01:25:54;;;;;;;8.15;5.60;;;;;;;;;;5092761;28;20205;-74
2021/01/27 01:28:27;;;;;;;7.82;6.00;;;;;;;;;;5092888;28;20686;-74
2021/01/27 01:31:00;;;;;;;7.47;5.07;;;;;;;;;;5093310;28;20197;-72
2021/01/27 01:33:33;;;;;;;7.30;4.57;;;;;;;;;;5094948;28;20589;-72
2021/01/27 01:36:06;;;;;;;6.93;5.60;;;;;;;;;;5094959;28;20201;-74
2021/01/27 01:38:39;;;;;;;6.82;5.80;;;;;;;;;;5094671;28;20189;-75
2021/01/27 01:41:13;;;;;;;7.30;5.10;;;;;;;;;;5090459;28;20194;-74
2021/01/27 01:43:46;;;;;;;6.70;5.07;;;;;;;;;;5090655;28;20224;-72
2021/01/27 01:46:20;;;;;;;7.60;5.22;;;;;;;;;;5092499;28;20228;-73
2021/01/27 01:48:55;;;;;;;6.53;5.60;;;;;;;;;;5090933;28;20226;-72
2021/01/27 01:51:30;;;;;;;7.82;5.60;;;;;;;;;;5091356;28;20224;-75
2021/01/27 01:54:06;;;;;;;7.07;4.85;;;;;;;;;;5094124;28;20224;-74
2021/01/27 01:56:42;;;;;;;7.38;5.25;;;;;;;;;;5094456;28;20204;-74
2021/01/27 01:59:15;;;;;;;7.00;5.50;;;;;;;;;;5094341;28;20204;-76
2021/01/27 02:01:50;;;;;;;6.85;5.25;;;;;;;;;;5092660;28;20194;-73
2021/01/27 02:04:24;;;;;;;6.68;5.72;;;;;;;;;;5089524;28;20243;-75
2021/01/27 02:06:57;;;;;;;6.78;5.40;;;;;;;;;;5090720;28;20288;-75
2021/01/27 02:09:30;;;;;;;8.68;5.38;;;;;;;;;;5091644;28;20694;-76
2021/01/27 02:12:17;;;;;;;7.40;4.80;;;;;;;;;;5091876;28;20214;-73
2021/01/27 02:14:59;;;;;;;5.55;4.65;;;;;;;;;;5091279;28;20229;-74
2021/01/27 02:17:35;;;;;;;6.28;4.57;;;;;;;;;;5094354;28;20544;-76
2021/01/27 02:20:16;;;;;;;7.32;4.22;;;;;;;;;;5093820;28;20197;-75
2021/01/27 02:23:03;;;;;;;5.00;3.60;;;;;;;;;;5092560;28;20221;-74
2021/01/27 02:25:51;;;;;;;5.78;3.55;;;;;;;;;;5089580;28;20197;-74
2021/01/27 02:28:35;;;;;;;4.47;3.17;;;;;;;;;;5090448;28;20730;-74
2021/01/27 02:31:12;;;;;;;4.00;3.05;;;;;;;;;;5091822;28;20225;-72
2021/01/27 02:33:59;;;;;;;5.20;3.95;;;;;;;;;;5090572;28;20772;-72
2021/01/27 02:36:39;;;;;;;3.25;2.95;;;;;;;;;;5091948;28;20290;-74
2021/01/27 02:39:14;;;;;;;4.75;3.25;;;;;;;;;;5093609;28;20194;-73
2021/01/27 02:41:52;;;;;;;3.80;3.08;;;;;;;;;;5092238;28;20197;-76
2021/01/27 02:44:37;;;;;;;4.28;3.10;;;;;;;;;;5093593;28;20556;-74
2021/01/27 02:47:14;;;;;;;4.78;3.10;;;;;;;;;;5089687;28;20194;-73
2021/01/27 02:49:50;;;;;;;5.30;3.67;;;;;;;;;;5089419;28;20311;-75
2021/01/27 02:52:25;;;;;;;6.43;4.30;;;;;;;;;;5090011;28;20213;-74
2021/01/27 02:55:06;;;;;;;5.53;3.67;;;;;;;;;;5091152;28;20207;-74
2021/01/27 02:57:42;;;;;;;3.67;3.38;;;;;;;;;;5091382;28;20224;-73
2021/01/27 03:00:17;;;;;;;4.65;4.00;;;;;;;;;;5092575;28;20215;-73
2021/01/27 03:02:52;;;;;;;5.88;4.03;;;;;;;;;;5093202;28;20311;-74
2021/01/27 03:05:28;;;;;;;6.25;4.68;;;;;;;;;;5093235;28;20219;-74
2021/01/27 03:08:05;;;;;;;4.80;4.20;;;;;;;;;;5091906;28;20707;-73
2021/01/27 03:10:41;;;;;;;6.10;3.40;;;;;;;;;;5088548;28;20204;-75
2021/01/27 03:13:13;;;;;;;6.18;4.00;;;;;;;;;;5088802;28;20238;-76
2021/01/27 03:15:47;;;;;;;5.07;3.05;;;;;;;;;;5089540;28;20783;-74
2021/01/27 03:18:23;;;;;;;3.78;3.38;;;;;;;;;;5090610;28;20674;-75
2021/01/27 03:20:59;;;;;;;5.05;3.35;;;;;;;;;;5091051;28;20193;-72
2021/01/27 03:23:35;;;;;;;7.28;3.80;;;;;;;;;;5092558;28;20290;-74
2021/01/27 03:26:15;;;;;;;3.08;2.70;;;;;;;;;;5092913;28;20193;-75
2021/01/27 03:28:51;;;;;;;6.13;3.92;;;;;;;;;;5091501;28;20562;-73
2021/01/27 03:31:24;;;;;;;3.88;3.30;;;;;;;;;;5088092;28;20204;-75
2021/01/27 03:33:59;;;;;;;3.53;2.70;;;;;;;;;;5088236;28;20228;-72
2021/01/27 03:36:35;;;;;;;9.73;3.95;;;;;;;;;;5089590;28;20660;-73
2021/01/27 03:39:10;;;;;;;5.35;3.78;;;;;;;;;;5090484;28;20197;-73
2021/01/27 03:41:45;;;;;;;5.55;3.80;;;;;;;;;;5090411;28;20602;-73
2021/01/27 03:44:19;;;;;;;4.47;3.10;;;;;;;;;;5091761;28;20246;-73
2021/01/27 03:46:55;;;;;;;4.03;3.05;;;;;;;;;;5091583;28;20350;-73
2021/01/27 03:49:29;;;;;;;6.20;3.90;;;;;;;;;;5091527;28;20217;-73
2021/01/27 03:52:06;;;;;;;3.78;3.47;;;;;;;;;;5090322;28;20239;-73
2021/01/27 03:54:43;;;;;;;3.67;2.78;;;;;;;;;;5088018;28;20194;-73
2021/01/27 03:57:18;;;;;;;3.50;3.20;;;;;;;;;;5089880;28;20292;-74
2021/01/27 03:59:51;;;;;;;3.80;3.42;;;;;;;;;;5090288;28;20199;-76
2021/01/27 04:02:24;;;;;;;4.75;3.70;;;;;;;;;;5090454;28;20642;-74
2021/01/27 04:04:57;;;;;;;6.10;3.38;;;;;;;;;;5091041;28;20703;-74
2021/01/27 04:07:30;;;;;;;3.92;3.20;;;;;;;;;;5092697;28;20288;-76
2021/01/27 04:10:04;;;;;;;5.72;3.35;;;;;;;;;;5092324;28;20223;-73
2021/01/27 04:12:37;;;;;;;4.78;3.42;;;;;;;;;;5092133;28;20235;-74
2021/01/27 04:15:15;;;;;;;4.00;3.20;;;;;;;;;;5087853;28;20345;-75
2021/01/27 04:17:48;;;;;;;3.28;2.70;;;;;;;;;;5088139;28;20196;-72
2021/01/27 04:20:22;;;;;;;5.03;3.40;;;;;;;;;;5089723;28;20201;-74
2021/01/27 04:22:55;;;;;;;6.95;3.30;;;;;;;;;;5089957;28;20713;-73
2021/01/27 04:25:29;;;;;;;3.90;3.20;;;;;;;;;;5090397;28;20289;-74
2021/01/27 04:28:01;;;;;;;3.30;2.70;;;;;;;;;;5091085;28;20292;-74
2021/01/27 04:30:35;;;;;;;4.32;2.78;;;;;;;;;;5093115;28;20218;-74
2021/01/27 04:33:09;;;;;;;4.45;2.53;;;;;;;;;;5096083;28;20217;-75
2021/01/27 04:35:41;;;;;;;3.25;2.55;;;;;;;;;;5094985;28;20233;-73
2021/01/27 04:38:14;;;;;;;3.17;2.60;;;;;;;;;;5089984;28;20247;-75
2021/01/27 04:40:48;;;;;;;4.07;3.05;;;;;;;;;;5092667;28;20815;-77
2021/01/27 04:43:23;;;;;;;3.10;2.80;;;;;;;;;;5092445;28;20226;-75
2021/01/27 04:45:59;;;;;;;2.60;2.35;;;;;;;;;;5093523;28;20300;-75
2021/01/27 04:48:37;;;;;;;4.22;3.17;;;;;;;;;;5093343;28;20204;-75
2021/01/27 04:51:13;;;;;;;3.95;3.15;;;;;;;;;;5095742;28;20266;-74
2021/01/27 04:53:52;;;;;;;4.95;3.00;;;;;;;;;;5094477;28;20308;-73
2021/01/27 04:56:33;;;;;;;3.72;2.70;;;;;;;;;;5095536;28;20576;-76
2021/01/27 04:59:12;;;;;;;4.07;2.80;;;;;;;;;;5092852;28;20193;-74
2021/01/27 05:01:49;;;;;;;3.63;3.00;;;;;;;;;;5091299;28;20243;-74
2021/01/27 05:04:29;;;;;;;4.15;2.47;;;;;;;;;;5092791;28;20705;-74
2021/01/27 05:07:05;;;;;;;5.95;2.75;;;;;;;;;;5093147;28;20208;-74
2021/01/27 05:09:40;;;;;;;3.17;2.63;;;;;;;;;;5093300;28;20301;-75
2021/01/27 05:12:15;;;;;;;4.75;2.70;;;;;;;;;;5092888;28;20746;-75
2021/01/27 05:14:48;;;;;;;3.97;2.85;;;;;;;;;;5094218;28;20535;-75
2021/01/27 05:17:21;;;;;;;2.40;2.20;;;;;;;;;;5095102;28;20297;-73
2021/01/27 05:19:54;;;;;;;3.28;2.88;;;;;;;;;;5094694;28;20290;-76
2021/01/27 05:22:28;;;;;;;3.95;2.85;;;;;;;;;;5090678;28;20223;-73
2021/01/27 05:25:00;;;;;;;3.88;2.90;;;;;;;;;;5091472;28;20242;-74
2021/01/27 05:27:36;;;;;;;3.03;2.40;;;;;;;;;;5092799;28;20223;-72
2021/01/27 05:30:12;;;;;;;3.30;2.97;;;;;;;;;;5092686;28;20223;-74
2021/01/27 05:32:48;;;;;;;5.07;3.78;;;;;;;;;;5091501;28;20281;-74
2021/01/27 05:35:24;;;;;;;4.32;2.70;;;;;;;;;;5094889;28;20204;-73
2021/01/27 05:37:58;;;;;;;4.55;2.90;;;;;;;;;;5093671;28;20207;-74
2021/01/27 05:40:35;;;;;;;3.33;3.03;;;;;;;;;;5094644;28;20662;-73
2021/01/27 05:43:16;;;;;;;6.32;2.80;;;;;;;;;;5092126;28;20240;-73
2021/01/27 05:45:51;;;;;;;3.78;3.05;;;;;;;;;;5089364;28;20193;-72
2021/01/27 05:48:27;;;;;;;4.10;3.17;;;;;;;;;;5090999;28;20208;-73
2021/01/27 05:51:09;;;;;;;3.40;3.10;;;;;;;;;;5092453;28;20259;-72
2021/01/27 05:53:42;;;;;;;3.67;2.80;;;;;;;;;;5089590;28;20230;-73
2021/01/27 05:56:17;;;;;;;4.65;3.50;;;;;;;;;;5087014;28;20563;-72
2021/01/27 05:58:58;;;;;;;3.17;2.33;;;;;;;;;;5094363;28;20197;-72
2021/01/27 06:01:41;;;;;;;2.72;2.53;;;;;;;;;;5094198;28;20198;-74
2021/01/27 06:04:16;;;;;;;3.67;2.90;;;;;;;;;;5092604;28;20255;-73
2021/01/27 06:06:58;;;;;;;4.13;3.00;;;;;;;;;;5089833;28;20201;-73
2021/01/27 06:09:40;;;;;;;3.80;3.20;;;;;;;;;;5090127;28;20540;-74
2021/01/27 06:12:14;;;;;;;3.50;3.00;;;;;;;;;;5091139;28;20275;-72
2021/01/27 06:14:48;;;;;;;3.30;3.00;;;;;;;;;;5089740;28;20278;-76
2021/01/27 06:17:24;;;;;;;4.03;2.95;;;;;;;;;;5091022;28;20201;-71
2021/01/27 06:20:00;;;;;;;5.03;3.13;;;;;;;;;;5093861;28;20197;-73
2021/01/27 06:22:40;;;;;;;3.70;3.33;;;;;;;;;;5093565;28;20223;-74
2021/01/27 06:25:19;;;;;;;4.53;3.08;;;;;;;;;;5094089;28;20262;-73
2021/01/27 06:27:58;;;;;;;3.53;3.20;;;;;;;;;;5089347;28;20586;-72
2021/01/27 06:30:41;;;;;;;3.83;2.95;;;;;;;;;;5089230;28;20217;-73
2021/01/27 06:33:27;;;;;;;4.43;2.95;;;;;;;;;;5091604;28;20221;-71
2021/01/27 06:36:06;;;;;;;3.63;2.55;;;;;;;;;;5091381;28;20197;-73
2021/01/27 06:38:43;;;;;;;3.65;2.88;;;;;;;;;;5091603;28;20208;-72
2021/01/27 06:41:25;;;;;;;2.95;2.60;;;;;;;;;;5073164;28;20246;-72
2021/01/27 06:44:02;;;;;;;3.38;2.75;;;;;;;;;;5072265;28;20195;-74
2021/01/27 06:46:43;;;;;;;4.18;2.60;;;;;;;;;;5073351;28;20198;-73
2021/01/27 06:49:24;;;;;;;5.80;2.58;;;;;;;;;;5081034;28;20589;-72
2021/01/27 06:52:05;;;;;;;5.07;2.80;;;;;;;;;;5088988;28;20256;-72
2021/01/27 06:54:47;;;;;;;3.55;3.25;;;;;;;;;;5089136;28;20206;-73
2021/01/27 06:57:18;;;;;;;7.03;3.72;;;;;;;;;;5089313;28;20181;-71
2021/01/27 07:00:00;;;;;;;3.35;3.05;;;;;;;;;;5090927;28;20202;-74
2021/01/27 07:02:43;;;;;;;3.88;3.53;;;;;;;;;;5089116;28;20225;-72
2021/01/27 07:05:25;;;;;;;4.55;3.55;;;;;;;;;;5088696;28;20281;-72
2021/01/27 07:08:04;;;;;;;5.30;4.18;;;;;;;;;;5090646;28;20646;-72
2021/01/27 07:10:47;;;;;;;5.35;4.40;;;;;;;;;;5090647;28;20221;-73
2021/01/27 07:13:28;;;;;;;6.95;3.90;;;;;;;;;;5091049;28;20211;-78
2021/01/27 07:16:02;;;;;;;4.10;3.70;;;;;;;;;;5091436;28;20228;-76
2021/01/27 07:18:43;;;;;;;7.22;3.78;;;;;;;;;;5092706;28;20609;-80
2021/01/27 07:21:18;;;;;;;4.32;3.92;;;;;;;;;;5092766;28;20194;-72
2021/01/27 07:23:56;;;;;;;6.38;4.55;;;;;;;;;;5086677;28;20217;-71
2021/01/27 07:26:32;;;;;;;4.47;3.72;;;;;;;;;;5088391;28;20280;-72
2021/01/27 07:29:08;;;;;;;5.32;4.10;;;;;;;;;;5089859;28;20574;-71
2021/01/27 07:31:45;;;;;;;3.53;3.22;;;;;;;;;;5090539;28;20296;-72
2021/01/27 07:34:21;;;;;;;3.60;3.00;;;;;;;;;;5089391;28;20280;-71
2021/01/27 07:36:59;;;;;;;5.03;3.70;;;;;;;;;;5091856;28;20215;-72
2021/01/27 07:39:38;;;;;;;4.78;3.35;;;;;;;;;;5091972;28;20200;-72
2021/01/27 07:42:21;;;;;;;5.95;3.40;;;;;;;;;;5092934;28;20218;-71
2021/01/27 07:44:56;;;;;;;4.43;3.92;;;;;;;;;;5092366;28;20598;-71
2021/01/27 07:47:35;;;;;;;4.60;3.80;;;;;;;;;;5088079;28;20198;-73
2021/01/27 07:50:11;;;;;;;4.43;3.95;;;2.30;99.90;;;;;;5089397;28;20209;-74
2021/01/27 07:52:49;;;;;;;5.18;3.90;;;;;;;;;;5089717;28;20681;-71
2021/01/27 07:55:28;;;;;;;3.85;3.40;;;;;;;;;;5090062;28;20204;-72
2021/01/27 07:58:04;;;;;;;4.85;3.80;;;;;;;;;;5090361;28;20566;-72
2021/01/27 08:00:33;;;;;;;5.85;3.85;;;;;;;;;;5091172;28;20189;-72
2021/01/27 08:03:12;;;;;;;5.05;4.25;;;;;;;;;;5091132;28;20716;-73
2021/01/27 08:05:46;;;;;;;5.75;4.10;;;;;;;;;;5093181;28;20227;-73
2021/01/27 08:08:21;;;;;;;6.07;3.95;;;;;;;;;;5090554;28;20208;-72
2021/01/27 08:10:54;;;;;;;5.03;3.50;;;;;;;;;;5091880;28;20261;-72
2021/01/27 08:13:36;;;;;;;7.43;4.00;;;;;;;;;;5085538;28;20300;-72
2021/01/27 08:16:26;;;;;;;5.47;3.70;;;;;;;;;;5091856;28;20577;-72
2021/01/27 08:19:08;;;;;;;5.85;3.05;;;;;;;;;;5094269;28;20196;-72
2021/01/27 08:21:51;;;;;;;4.55;2.80;;;;;;;;;;5094348;28;20204;-72
2021/01/27 08:24:32;;;;;;;4.50;3.20;;;;;;;;;;5095813;28;20186;-72
2021/01/27 08:27:14;;;;;;;3.85;2.55;;;;;;;;;;5095033;28;20220;-72
2021/01/27 08:29:55;;;;;;;4.22;2.60;;;;;;;;;;5092279;28;20260;-71
2021/01/27 08:32:29;;;;;;;3.15;2.80;;;;;;;;;;5090688;28;20218;-72
2021/01/27 08:35:03;;;;;;;4.18;3.08;;;;;;;;;;5091700;28;20297;-73
2021/01/27 08:37:38;;;;;;;3.05;2.60;;;;;;;;;;5092227;28;20292;-73
2021/01/27 08:40:14;;;;;;;5.53;3.05;;;;;;;;;;5093777;28;20292;-73
2021/01/27 08:42:48;;;;;;;3.28;2.95;;;;;;;;;;5094745;28;20228;-73
2021/01/27 08:45:19;;;;;;;3.33;2.30;;;;;;;;;;5095196;28;20208;-74
2021/01/27 08:47:52;;;;;;;3.50;2.20;;;;;;;;;;5094876;28;20196;-74
2021/01/27 08:50:34;;;;;;;2.90;2.58;;;;;;;;;;5095213;28;20221;-74
2021/01/27 08:53:08;;;;;;;3.17;2.30;;;;;;;;;;5090698;28;20208;-75
2021/01/27 08:55:53;;;;;;;2.42;2.00;;;;;;;;;;5090333;28;20851;-75
2021/01/27 08:58:27;;;;;;;3.00;2.15;;;;;;;;;;5091552;28;20189;-72
2021/01/27 09:01:01;;;;;;;2.80;2.55;;;;;;;;;;5091811;28;20238;-73
2021/01/27 09:03:42;;;;;;;2.45;2.25;;;;;;;;;;5092530;28;20205;-73
2021/01/27 09:06:22;;;;;;;3.33;2.63;;;;;;;;;;5092262;28;20587;-72
2021/01/27 09:09:06;;;;;;;6.18;2.47;;;;;;;;;;5093116;28;20276;-74
2021/01/27 09:11:39;;;;;;;3.00;2.72;;;;;;;;;;5090911;28;20198;-72
2021/01/27 09:14:13;;;;;;;2.80;2.60;;;;;;;;;;5092069;28;20209;-73
2021/01/27 09:16:49;;;;;;;3.47;2.35;;;;;;;;;;5090254;28;20703;-74
2021/01/27 09:19:23;;;;;;;4.70;2.53;;;;;;;;;;5092786;28;20272;-74
2021/01/27 09:22:04;;;;;;;7.78;2.90;;;;;;;;;;5092750;28;20219;-73
2021/01/27 09:24:41;;;;;;;3.75;2.85;;;;;;;;;;5094866;28;20652;-74
2021/01/27 09:27:17;;;;;;;3.60;3.15;;;;;;;;;;5092977;28;20204;-73
2021/01/27 09:29:55;;;;;;;3.65;2.70;;;;;;;;;;5094752;28;20221;-75
2021/01/27 09:32:28;;;;;;;3.28;2.97;;;;;;;;;;5092860;28;20225;-75
2021/01/27 09:35:10;;;;;;;3.22;2.65;;;;;;;;;;5090518;28;20193;-74
2021/01/27 09:37:46;;;;;;;3.85;2.60;;;;;;;;;;5091014;28;20298;-74
2021/01/27 09:40:27;;;;;;;6.18;2.97;;;;;;;;;;5090997;28;20200;-74
2021/01/27 09:43:02;;;;;;;3.42;3.13;;;;;;;;;;5092045;28;20216;-72
2021/01/27 09:45:35;;;;;;;3.55;3.25;;;;;;;;;;5090907;28;20250;-73
2021/01/27 09:48:10;;;;;;;4.18;3.00;;;;;;;;;;5090240;28;20190;-75
2021/01/27 09:50:47;;;;;;;2.95;2.70;;;;;;;;;;5089485;28;20221;-73
2021/01/27 09:53:23;;;;;;;4.05;2.88;;;;;;;;;;5091194;28;20278;-74
2021/01/27 09:55:57;;;;;;;3.70;3.40;;;;;;;;;;5091270;28;20186;-73
2021/01/27 09:58:30;;;;;;;3.95;3.20;;;;;;;;;;5091901;28;20250;-75
2021/01/27 10:01:03;;;;;;;5.40;3.10;;;;;;;;;;5094344;28;20623;-74
2021/01/27 10:03:38;;;;;;;2.90;2.70;;;;;;;;;;5092318;28;20209;-74
2021/01/27 10:06:20;;;;;;;3.20;2.90;;;;;;;;;;5093939;28;20202;-73
2021/01/27 10:08:53;;;;;;;3.40;3.10;;;;;;;;;;5091435;28;20201;-75
2021/01/27 10:11:29;;;;;;;3.08;2.70;;;;;;;;;;5089338;28;20226;-73
2021/01/27 10:14:04;;;;;;;3.15;2.80;;;;;;;;;;5090798;28;20193;-75
2021/01/27 10:16:46;;;;;;;3.50;3.10;;;;;;;;;;5089121;28;20225;-74
2021/01/27 10:19:22;;;;;;;3.83;2.80;;;;;;;;;;5090593;28;20204;-74
2021/01/27 10:21:57;;;;;;;3.67;3.20;;;;;;;;;;5091035;28;20781;-76
2021/01/27 10:24:38;;;;;;;5.05;3.53;;;;;;;;;;5092227;28;20235;-74
2021/01/27 10:27:17;;;;;;;5.55;3.05;;;;;;;;;;5092920;28;20207;-74
2021/01/27 10:29:51;;;;;;;3.72;2.70;;;;;;;;;;5092653;28;20266;-75
2021/01/27 10:32:33;;;;;;;5.25;3.13;;;;;;;;;;5089213;28;20299;-74
2021/01/27 10:35:15;;;;;;;5.40;3.20;;;;;;;;;;5088336;28;20189;-75
2021/01/27 10:37:48;;;;;;;5.28;3.50;;;;;;;;;;5090338;28;20194;-75
2021/01/27 10:40:24;;;;;;;3.20;2.90;;;;;;;;;;5091388;28;20197;-73
2021/01/27 10:42:53;;;;;;;5.65;3.72;;;;;;;;;;5089275;28;20209;-72
2021/01/27 10:45:29;;;;;;;6.75;3.58;;;;;;;;;;5088422;28;20208;-73
2021/01/27 10:47:59;;;;;;;3.58;3.17;;;;;;;;;;5085019;28;20677;-74
2021/01/27 10:50:27;;;;;;;4.47;3.85;;;;;;;;;;5087600;28;20224;-73
2021/01/27 10:52:54;;;;;;;4.32;3.63;;;;;;;;;;5088092;28;20573;-73
2021/01/27 10:55:21;;;;;;;3.80;3.42;;;;;;;;;;5087668;28;20201;-73
2021/01/27 10:57:48;;;;;;;3.25;2.95;;;;;;;;;;5087553;28;20201;-75
2021/01/27 11:00:22;;;;;;;5.53;3.33;;;;;;;;;;5089870;28;20212;-73
2021/01/27 11:02:55;;;;;;;5.05;3.80;;;;;;;;;;5089862;28;20209;-74
2021/01/27 11:05:22;;;;;;;4.28;3.30;;;;;;;;;;5089828;28;20707;-72
2021/01/27 11:07:49;;;;;;;6.65;3.88;;;;;;;;;;5088427;28;20186;-72
2021/01/27 11:10:16;;;;;;;5.10;3.38;;;;;;;;;;5085616;28;20249;-75
2021/01/27 11:12:42;;;;;;;4.95;3.40;;;;;;;;;;5086486;28;20438;-72
2021/01/27 11:15:10;;;;;;;4.93;3.40;;;;;;;;;;5085627;28;20326;-73
2021/01/27 11:17:40;;;;;;;4.72;3.63;;;;;;;;;;5087864;28;20200;-73
2021/01/27 11:20:07;;;;;;;4.75;4.00;;;;;;;;;;5087588;28;20227;-73
2021/01/27 11:22:34;;;;;;;5.90;3.20;;;;;;;;;;5088773;28;20782;-73
2021/01/27 11:25:09;;;;;;;3.65;3.35;;;;;;;;;;5089498;28;20676;-72
2021/01/27 11:27:36;;;;;;;3.60;3.30;;;;;;;;;;5089559;28;20201;-74
2021/01/27 11:30:09;;;;;;;4.20;3.80;;;;;;;;;;5089586;28;20758;-73
2021/01/27 11:32:36;;;;;;;3.67;3.38;;;;;;;;;;5084790;28;20576;-74
2021/01/27 11:35:04;;;;;;;5.32;3.45;;;;;;;;;;5085572;28;20194;-74
2021/01/27 11:37:37;;;;;;;3.60;3.30;;;;;;;;;;5079637;28;20554;-73
2021/01/27 11:40:10;;;;;;;5.38;3.35;;;;;;;;;;5078295;28;20543;-73
2021/01/27 11:42:43;;;;;;;3.75;3.28;;;;;;;;;;5089279;28;20690;-73
2021/01/27 11:45:17;;;;;;;3.63;3.33;;;;;;;;;;5091244;28;20298;-75
2021/01/27 11:47:50;;;;;;;4.15;3.33;;;;;;;;;;5091430;28;20203;-73
2021/01/27 11:50:25;;;;;;;3.78;3.40;;;;;;;;;;5092357;28;20217;-72
2021/01/27 11:52:58;;;;;;;3.50;2.92;;;;;;;;;;5090705;28;20213;-72
2021/01/27 11:55:25;;;;;;;4.25;3.42;;;;;;;;;;5087101;28;20197;-73
2021/01/27 11:57:58;;;;;;;3.40;3.10;;;;;;;;;;5088792;28;20216;-72
2021/01/27 12:00:31;;;;;;;3.72;3.42;;;;;;;;;;5090072;28;20199;-72
2021/01/27 12:03:03;;;;;;;6.47;3.72;;;;;;;;;;5089871;28;20298;-75
2021/01/27 12:05:37;;;;;;;4.93;3.83;;;;;;;;;;5088198;28;20189;-73
2021/01/27 12:08:04;;;;;;;5.22;3.40;;;;;;;;;;5091466;28;20198;-74
2021/01/27 12:10:37;;;;;;;4.78;3.75;;;;;;;;;;5091205;28;20686;-71
2021/01/27 12:13:10;;;;;;;4.63;4.10;;;;;;;;;;5092349;28;20217;-74
2021/01/27 12:15:43;;;;;;;4.70;3.72;;;;;;;;;;5090811;28;20222;-75
2021/01/27 12:18:16;;;;;;;4.82;3.88;;;;;;;;;;5086791;28;21066;-73
2021/01/27 12:20:50;;;;;;;5.45;4.30;;;;;;;;;;5087929;28;20282;-73
2021/01/27 12:23:22;;;;;;;3.60;3.30;;;;;;;;;;5089110;28;20262;-74
2021/01/27 12:25:55;;;;;;;4.60;4.20;;;;;;;;;;5085584;28;20270;-73
2021/01/27 12:28:28;;;;;;;3.92;3.47;;;;;;;;;;5085025;28;20212;-75
2021/01/27 12:31:01;;;;;;;4.85;3.80;;;;;;;;;;5086687;28;20293;-72
2021/01/27 12:33:33;;;;;;;5.05;4.53;;;;;;;;;;5087732;28;20220;-74
2021/01/27 12:36:01;;;;;;;5.30;4.82;;;;;;;;;;5088849;28;20206;-75
2021/01/27 12:38:28;;;;;;;5.63;5.00;;;;;;;;;;5088398;28;20204;-74
2021/01/27 12:40:55;;;;;;;5.00;4.50;;;;;;;;;;5090097;28;20677;-73
2021/01/27 12:43:22;;;;;;;5.63;5.13;;;;;;;;;;5088275;28;20275;-77
2021/01/27 12:45:55;;;;;;;4.95;4.15;;;;;;;;;;5089825;28;20247;-76
2021/01/27 12:48:28;;;;;;;7.88;4.80;;;;;;;;;;5087361;28;20259;-74
2021/01/27 12:51:02;;;;;;;6.30;4.60;;;;;;;;;;5088157;28;20259;-73
2021/01/27 12:53:29;;;;;;;6.00;5.40;;;;;;;;;;5090484;28;20227;-74
2021/01/27 12:56:07;;;;;;;7.13;5.20;;;;;;;;;;5092847;28;20280;-79
2021/01/27 12:58:34;;;;;;;7.32;5.97;;;;;;;;;;5093924;28;20979;-74
2021/01/27 13:01:07;;;;;;;7.70;5.40;;;;;;;;;;5095278;28;20721;-74
2021/01/27 13:03:33;;;;;;;6.75;5.07;;;;;;;;;;5094742;28;20236;-73
2021/01/27 13:06:01;;;;;;;11.48;5.00;;;;;;;;;;5094387;28;20202;-74
2021/01/27 13:08:34;;;;;;;6.82;5.50;;;;;;;;;;5088864;28;20197;-74
2021/01/27 13:11:07;;;;;;;6.30;5.35;;;;;;;;;;5090018;28;20235;-74
2021/01/27 13:13:39;;;;;;;6.60;5.25;;;;;;;;;;5092480;28;20632;-74
2021/01/27 13:16:06;;;;;;;7.25;6.00;;;;;;;;;;5082794;28;20237;-75
2021/01/27 13:18:39;;;;;;;7.47;5.72;;;;;;;;;;5073041;28;20198;-75
2021/01/27 13:21:13;;;;;;;6.30;5.70;;;;;;;;;;5054237;28;20195;-73
2021/01/27 13:23:47;;;;;;;6.95;6.25;;;;;;;;;;5068609;28;20271;-73
2021/01/27 13:26:20;;;;;;;8.57;6.15;;;;;;;;;;5074785;28;20201;-77
2021/01/27 13:28:53;;;;;;;9.75;6.03;;;;;;;;;;5074078;28;20612;-74
2021/01/27 13:31:29;;;;;;;8.27;6.75;;;;;;;;;;5071654;28;20259;-75
2021/01/27 13:34:09;;;;;;;7.22;6.20;;;;;;;;;;5069751;28;20720;-75
2021/01/27 13:36:43;;;;;;;6.80;5.88;;;;;;;;;;5051853;28;20199;-77
2021/01/27 13:39:17;;;;;;;7.60;6.72;;;;;;;;;;5064255;28;20599;-78
2021/01/27 13:41:50;;;;;;;8.10;6.15;;;;;;;;;;5072766;28;20285;-74
2021/01/27 13:44:24;;;;;;;7.82;6.57;;;;;;;;;;5069587;28;20292;-79
2021/01/27 13:46:56;;;;;;;8.90;7.10;;;;;;;;;;5070327;28;20619;-78
2021/01/27 13:49:29;;;;;;;7.30;6.47;;;;;;;;;;5071519;28;20204;-76
2021/01/27 13:52:03;;;;;;;7.50;6.53;;;;;;;;;;5071770;28;20224;-79
2021/01/27 13:54:36;;;;;;;7.72;6.30;;;;;;;;;;5070818;28;20230;-77
2021/01/27 13:57:09;;;;;;;5.95;5.28;;;;;;;;;;5073263;28;20560;-75
2021/01/27 13:59:41;;;;;;;6.63;5.45;;;;;;;;;;5074131;28;20198;-77
2021/01/27 14:02:14;;;;;;;6.75;5.82;;;;;;;;;;5073522;28;20308;-74
2021/01/27 14:04:47;;;;;;;8.57;6.32;;;;;;;;;;5073853;28;20564;-77
2021/01/27 14:07:15;;;;;;;8.48;5.35;;;;;;;;;;5069259;28;20663;-74
2021/01/27 14:09:47;;;;;;;8.13;6.47;;;;;;;;;;5069965;28;20578;-78
2021/01/27 14:12:20;;;;;;;7.85;6.45;;;;;;;;;;5071815;28;20218;-73
2021/01/27 14:15:00;;;;;;;7.10;5.60;;;;;;;;;;5071096;28;20198;-74
2021/01/27 14:17:39;;;;;;;7.82;6.30;;;;;;;;;;5090943;28;20308;-76
2021/01/27 14:20:13;;;;;;;6.57;5.30;;;;;;;;;;5074010;28;20208;-76
2021/01/27 14:22:46;;;;;;;8.10;5.68;;;;;;;;;;5072477;28;20305;-77
2021/01/27 14:25:20;;;;;;;9.40;6.47;;;;;;;;;;5073706;28;20205;-76
2021/01/27 14:27:53;;;;;;;8.05;5.55;;;;;;;;;;5077689;28;20200;-77
2021/01/27 14:30:27;;;;;;;6.30;4.72;;;;;;;;;;5089230;28;20253;-74
2021/01/27 14:33:00;;;;;;;5.72;5.03;;;;;;;;;;5091382;28;20214;-78
2021/01/27 14:35:32;;;;;;;9.85;6.25;;;;;;;;;;5092106;28;20739;-77
2021/01/27 14:38:06;;;;;;;6.50;5.70;;;;;;;;;;5091689;28;20204;-74
2021/01/27 14:40:39;;;;;;;7.10;4.72;;;;;;;;;;5092636;28;20604;-76
2021/01/27 14:43:11;;;;;;;7.70;5.20;;;;;;;;;;5094004;28;20571;-76
2021/01/27 14:45:44;;;;;;;10.77;6.13;;;;;;;;;;5093990;28;20659;-77
2021/01/27 14:48:17;;;;;;;22.67;8.77;;;;;;;;;;5094899;28;20290;-75
2021/01/27 14:50:50;;;;;;;7.53;4.82;;;;;;;;;;5092725;28;20214;-73
2021/01/27 14:53:24;;;;;;;8.93;6.10;;;;;;;;;;5090045;28;20296;-74
2021/01/27 14:55:57;;;;;;;7.65;5.10;;;;;;;;;;5081551;28;20430;-76
2021/01/27 14:58:30;;;;;;;7.68;4.50;;;;;;;;;;5092147;28;20197;-74
2021/01/27 15:01:02;;;;;;;4.53;4.07;;;;;;;;;;5091677;28;20178;-77
2021/01/27 15:03:35;;;;;;;4.03;3.60;;;;;;;;;;5092274;28;20271;-76
2021/01/27 15:06:08;;;;;;;4.88;3.63;;;;;;;;;;5073303;28;20208;-75
2021/01/27 15:08:41;;;;;;;9.80;5.75;;;;;;;;;;5073303;28;20263;-77
2021/01/27 15:11:14;;;;;;;10.95;6.47;;;;;;;;;;5089491;28;20217;-77
2021/01/27 15:13:47;;;;;;;10.45;7.60;;;;;;;;;;5089410;28;20751;-75
2021/01/27 15:16:26;;;;;;;12.77;7.70;;;;;;;;;;5088557;28;20623;-75
2021/01/27 15:18:59;;;;;;;14.05;6.80;;;;;;;;;;5071002;28;20220;-76
2021/01/27 15:21:32;;;;;;;9.45;7.72;;;;;;;;;;5087045;28;20200;-78
2021/01/27 15:24:06;;;;;;;10.80;6.70;;;;;;;;;;5091544;28;20223;-78
2021/01/27 15:26:38;;;;;;;9.48;6.22;;;;;;;;;;5092553;28;20199;-74
2021/01/27 15:29:11;;;;;;;6.90;5.00;;;;;;;;;;5093501;28;20200;-74